Time;durP1;ratioP1;P1;durP2;ratioP2;P2;SDS_P1;SDS_P2;PMS_P1;PMS_P2;Temp;Humidity;BMP_temperature;BMP_pressure;BME280_temperature;BME280_humidity;BME280_pressure;Samples;Min_cycle;Max_cycle;Signal;HPM_P1;HPM_P2
2022/07/19 00:00:07;;;;;;;3.08;1.10;;;;;;;17.74;47.79;98696.63;4502101;31;20123;-83
2022/07/19 00:02:34;;;;;;;5.18;1.30;;;;;;;17.91;47.38;98699.03;4503241;31;20198;-83
2022/07/19 00:05:01;;;;;;;3.30;1.27;;;;;;;17.91;47.38;98698.19;4501558;31;20708;-83
2022/07/19 00:07:28;;;;;;;2.67;1.20;;;;;;;17.63;47.87;98694.62;4503037;31;20516;-83
2022/07/19 00:09:55;;;;;;;2.67;1.17;;;;;;;17.81;47.85;98692.72;4503282;31;20111;-83
2022/07/19 00:12:22;;;;;;;3.67;1.10;;;;;;;17.79;47.97;98696.34;4502833;31;20126;-83
2022/07/19 00:14:49;;;;;;;1.80;0.90;;;;;;;17.66;48.70;98690.19;4502970;31;20156;-83
2022/07/19 00:17:16;;;;;;;2.30;1.20;;;;;;;17.68;48.34;98693.53;4502533;31;20087;-83
2022/07/19 00:19:43;;;;;;;2.42;1.25;;;;;;;17.75;49.03;98702.69;4502965;31;20487;-83
2022/07/19 00:22:13;;;;;;;3.65;1.30;;;;;;;17.73;49.33;98686.28;4503010;31;20144;-83
2022/07/19 00:24:40;;;;;;;3.25;1.40;;;;;;;17.78;48.94;98695.53;4502475;31;20155;-83
2022/07/19 00:27:07;;;;;;;2.28;1.15;;;;;;;17.40;49.82;98687.38;4502850;31;20162;-83
2022/07/19 00:29:34;;;;;;;4.75;1.33;;;;;;;17.62;49.37;98697.34;4501754;31;20109;-83
2022/07/19 00:32:01;;;;;;;3.53;1.40;;;;;;;17.67;48.99;98686.66;4502509;31;20160;-83
2022/07/19 00:34:28;;;;;;;5.15;1.40;;;;;;;17.63;49.29;98688.59;4501520;31;20176;-83
2022/07/19 00:36:55;;;;;;;2.67;1.30;;;;;;;17.82;48.23;98690.94;4502796;31;20513;-83
2022/07/19 00:39:22;;;;;;;5.35;1.50;;;;;;;17.44;49.19;98694.09;4502351;31;20080;-83
2022/07/19 00:41:49;;;;;;;5.60;1.30;;;;;;;17.65;48.48;98686.72;4502709;31;20144;-83
2022/07/19 00:44:16;;;;;;;4.43;1.20;;;;;;;17.78;48.30;98695.53;4502601;31;20109;-83
2022/07/19 00:46:43;;;;;;;6.65;1.20;;;;;;;17.36;49.63;98688.50;4502347;31;20152;-83
2022/07/19 00:49:10;;;;;;;3.45;1.30;;;;;;;17.64;48.82;98690.25;4504066;31;20416;-83
2022/07/19 00:51:40;;;;;;;2.72;1.30;;;;;;;17.46;49.34;98694.84;4504592;31;20096;-83
2022/07/19 00:54:08;;;;;;;4.90;1.45;;;;;;;17.53;49.06;98688.31;4504201;31;20096;-83
2022/07/19 00:56:37;;;;;;;5.25;1.40;;;;;;;17.66;48.88;98687.59;4503344;31;20151;-83
2022/07/19 00:59:05;;;;;;;5.18;1.60;;;;;;;17.61;49.35;98691.28;4503274;31;20075;-83
2022/07/19 01:01:32;;;;;;;3.97;1.15;;;;;;;17.33;50.01;98681.72;4504464;31;20690;-83
2022/07/19 01:03:59;;;;;;;3.80;1.40;;;;;;;17.21;50.36;98678.97;4504373;31;20118;-83
2022/07/19 01:06:26;;;;;;;4.25;1.30;;;;;;;17.28;50.41;98682.91;4503975;31;20118;-83
2022/07/19 01:08:53;;;;;;;2.05;1.00;;;;;;;17.30;50.30;98678.44;4503201;31;20075;-83
2022/07/19 01:11:20;;;;;;;1.77;1.05;;;;;;;17.20;50.58;98672.09;4503208;31;20159;-83
2022/07/19 01:13:48;;;;;;;4.70;1.50;;;;;;;17.45;49.94;98674.06;4502811;31;20209;-83
2022/07/19 01:16:16;;;;;;;3.08;1.20;;;;;;;17.58;49.53;98685.44;4504394;31;20099;-83
2022/07/19 01:18:43;;;;;;;3.80;1.30;;;;;;;17.54;49.58;98676.09;4502786;31;20136;-83
2022/07/19 01:21:23;;;;;;;3.55;1.27;;;;;;;17.15;50.48;98672.38;4504002;31;20134;-83
2022/07/19 01:23:51;;;;;;;3.22;1.48;;;;;;;17.18;50.76;98677.41;4504386;31;20450;-82
2022/07/19 01:26:18;;;;;;;3.42;1.27;;;;;;;17.04;51.09;98675.59;4504206;31;20358;-83
2022/07/19 01:28:46;;;;;;;2.53;1.30;;;;;;;16.89;51.53;98675.66;4502608;31;20110;-83
2022/07/19 01:31:13;;;;;;;1.87;1.20;;;;;;;17.25;50.92;98677.88;4504191;31;20113;-83
2022/07/19 01:33:45;;;;;;;2.87;1.10;;;;;;;17.10;51.21;98677.00;4504201;31;20164;-83
2022/07/19 01:36:12;;;;;;;2.00;1.30;;;;;;;16.95;51.03;98673.53;4503937;31;20152;-83
2022/07/19 01:38:39;;;;;;;4.07;1.50;;;;;;;16.88;51.43;98666.16;4504144;31;20105;-83
2022/07/19 01:41:06;;;;;;;5.85;1.40;;;;;;;16.80;51.66;98668.38;4504199;31;20144;-83
2022/07/19 01:43:34;;;;;;;3.40;1.20;;;;;;;16.40;52.34;98674.09;4503821;31;20470;-83
2022/07/19 01:46:02;;;;;;;5.45;1.40;;;;;;;16.55;51.80;98674.97;4504054;31;20155;-83
2022/07/19 01:48:29;;;;;;;5.60;1.30;;;;;;;16.75;50.99;98674.69;4503697;31;20102;-83
2022/07/19 01:50:56;;;;;;;2.17;1.15;;;;;;;16.56;51.33;98670.59;4504203;31;20160;-83
2022/07/19 01:53:23;;;;;;;3.35;1.50;;;;;;;16.62;51.51;98671.09;4504181;31;20152;-83
2022/07/19 01:55:50;;;;;;;4.15;1.30;;;;;;;16.44;52.06;98672.97;4503698;31;20577;-83
2022/07/19 01:58:17;;;;;;;3.53;1.35;;;;;;;16.54;51.95;98667.25;4503995;31;20421;-83
2022/07/19 02:00:44;;;;;;;3.95;1.50;;;;;;;16.62;51.89;98662.44;4503990;31;20139;-83
2022/07/19 02:03:11;;;;;;;4.30;1.12;;;;;;;16.39;52.27;98672.41;4503708;31;20171;-82
2022/07/19 02:05:39;;;;;;;3.00;1.20;;;;;;;16.25;52.60;98669.72;4504030;31;20460;-83
2022/07/19 02:08:06;;;;;;;4.32;1.50;;;;;;;16.12;53.38;98673.94;4503987;31;20545;-83
2022/07/19 02:10:33;;;;;;;2.62;1.50;;;;;;;15.94;54.18;98672.34;4503615;31;20096;-83
2022/07/19 02:13:00;;;;;;;5.78;1.42;;;;;;;15.91;54.53;98670.75;4503970;31;20445;-83
2022/07/19 02:15:27;;;;;;;5.37;1.40;;;;;;;16.29;53.63;98680.81;4503864;31;20099;-83
2022/07/19 02:17:55;;;;;;;8.88;1.58;;;;;;;15.99;54.43;98681.59;4503260;31;20426;-83
2022/07/19 02:20:23;;;;;;;3.80;1.45;;;;;;;15.85;55.18;98674.53;4503894;31;20123;-83
2022/07/19 02:22:50;;;;;;;3.20;1.30;;;;;;;15.71;55.54;98678.78;4502772;31;20159;-83
2022/07/19 02:25:18;;;;;;;3.05;1.48;;;;;;;15.69;55.84;98688.44;4502273;31;20516;-83
2022/07/19 02:27:45;;;;;;;3.08;1.20;;;;;;;16.13;54.55;98688.63;4503787;31;20442;-83
2022/07/19 02:30:13;;;;;;;4.87;1.40;;;;;;;16.32;53.42;98686.69;4503907;31;20106;-83
2022/07/19 02:32:40;;;;;;;7.22;1.50;;;;;;;16.42;53.26;98681.81;4503552;31;20088;-83
2022/07/19 02:35:08;;;;;;;6.50;1.48;;;;;;;16.21;53.27;98683.84;4503598;31;20355;-83
2022/07/19 02:37:35;;;;;;;3.72;1.25;;;;;;;16.05;53.40;98677.78;4503435;31;20147;-83
2022/07/19 02:40:02;;;;;;;3.72;1.58;;;;;;;16.36;52.82;98674.31;4503773;31;20167;-83
2022/07/19 02:42:30;;;;;;;4.12;1.50;;;;;;;16.29;53.08;98681.66;4503755;31;20456;-83
2022/07/19 02:44:56;;;;;;;3.17;1.25;;;;;;;16.44;52.43;98686.00;4503138;31;20084;-83
2022/07/19 02:47:24;;;;;;;3.50;1.10;;;;;;;16.40;52.23;98679.28;4503573;31;20106;-83
2022/07/19 02:49:51;;;;;;;1.87;1.10;;;;;;;16.25;52.65;98689.72;4502587;31;20122;-83
2022/07/19 02:52:18;;;;;;;3.03;1.27;;;;;;;16.01;53.25;98677.13;4503372;31;20446;-83
2022/07/19 02:54:45;;;;;;;1.92;1.05;;;;;;;16.30;52.99;98679.91;4503478;31;20179;-83
2022/07/19 02:57:12;;;;;;;2.90;1.17;;;;;;;16.44;52.41;98679.94;4503636;31;20429;-83
2022/07/19 02:59:39;;;;;;;1.90;1.05;;;;;;;16.23;52.85;98681.16;4503261;31;20096;-83
2022/07/19 03:02:06;;;;;;;4.80;1.40;;;;;;;16.20;52.95;98688.22;4503633;31;20163;-83
2022/07/19 03:04:33;;;;;;;4.80;1.30;;;;;;;16.02;53.21;98676.19;4503467;31;20143;-83
2022/07/19 03:07:00;;;;;;;2.97;1.27;;;;;;;15.85;53.83;98684.94;4503044;31;20105;-83
2022/07/19 03:09:27;;;;;;;5.22;1.75;;;;;;;15.75;54.09;98683.75;4503522;31;20394;-83
2022/07/19 03:11:54;;;;;;;3.87;1.33;;;;;;;16.04;53.21;98687.38;4502930;31;20167;-83
2022/07/19 03:14:21;;;;;;;2.80;1.10;;;;;;;16.14;52.70;98687.69;4503044;31;20431;-83
2022/07/19 03:16:48;;;;;;;4.55;1.30;;;;;;;15.96;53.41;98693.94;4503409;31;20076;-83
2022/07/19 03:19:15;;;;;;;5.40;1.40;;;;;;;16.30;52.66;98692.91;4503202;31;20140;-83
2022/07/19 03:21:42;;;;;;;2.75;1.30;;;;;;;16.50;51.97;98695.25;4502751;31;20404;-83
2022/07/19 03:24:09;;;;;;;4.05;1.30;;;;;;;16.35;52.22;98694.31;4503225;31;20150;-83
2022/07/19 03:26:37;;;;;;;2.92;1.40;;;;;;;16.19;52.85;98693.50;4503075;31;20147;-82
2022/07/19 03:29:03;;;;;;;9.45;1.40;;;;;;;16.34;52.24;98694.41;4503364;31;20084;-83
2022/07/19 03:31:30;;;;;;;4.53;1.30;;;;;;;16.24;52.66;98691.47;4503498;31;20731;-83
2022/07/19 03:33:58;;;;;;;2.78;1.27;;;;;;;16.06;53.46;98685.53;4502865;31;20111;-83
2022/07/19 03:36:25;;;;;;;4.30;1.23;;;;;;;16.31;52.49;98692.00;4502287;31;20083;-83
2022/07/19 03:38:52;;;;;;;5.50;1.23;;;;;;;16.32;52.56;98694.50;4503270;31;20114;-84
2022/07/19 03:41:19;;;;;;;5.93;1.50;;;;;;;16.10;53.64;98694.84;4503079;31;20114;-84
2022/07/19 03:43:46;;;;;;;3.67;1.40;;;;;;;16.74;51.39;98695.63;4503232;31;20163;-83
2022/07/19 03:46:13;;;;;;;4.20;1.30;;;;;;;16.54;51.84;98701.09;4503252;31;20084;-84
2022/07/19 03:48:40;;;;;;;4.10;1.27;;;;;;;16.10;53.59;98696.63;4502941;31;20084;-83
2022/07/19 03:51:07;;;;;;;2.10;1.25;;;;;;;16.40;52.26;98699.28;4503362;31;20163;-84
2022/07/19 03:53:36;;;;;;;5.68;1.48;;;;;;;16.54;51.84;98706.31;4503187;31;20458;-83
2022/07/19 03:56:04;;;;;;;4.32;1.60;;;;;;;16.56;51.84;98707.91;4502953;31;20102;-84
2022/07/19 03:58:31;;;;;;;3.83;1.30;;;;;;;16.71;52.11;98708.84;4503176;31;20152;-84
2022/07/19 04:00:58;;;;;;;2.62;1.30;;;;;;;17.35;49.60;98708.53;4503208;31;20155;-84
2022/07/19 04:03:25;;;;;;;6.22;1.58;;;;;;;17.97;48.18;98707.41;4502886;31;20105;-84
2022/07/19 04:05:52;;;;;;;3.22;1.23;;;;;;;18.72;46.31;98706.97;4503118;31;20071;-84
2022/07/19 04:08:19;;;;;;;3.25;1.50;;;;;;;19.30;45.91;98713.53;4502953;31;20088;-84
2022/07/19 04:10:46;;;;;;;5.97;1.40;;;;;;;19.90;44.19;98718.13;4502941;31;20136;-84
2022/07/19 04:13:13;;;;;;;2.45;1.20;;;;;;;20.69;42.49;98719.47;4503018;31;20151;-83
2022/07/19 04:15:40;;;;;;;34.55;3.28;;;;;;;21.31;41.13;98718.38;4502849;31;20107;-83
2022/07/19 04:18:12;;;;;;;17.70;2.05;;;;;;;21.99;38.87;98735.84;4502996;31;20088;-84
2022/07/19 04:20:39;;;;;;;4.53;1.20;;;;;;;22.59;37.52;98734.56;4503008;31;20135;-84
2022/07/19 04:23:06;;;;;;;6.78;1.42;;;;;;;23.33;36.03;98727.56;4501137;31;20481;-84
2022/07/19 04:25:34;;;;;;;3.22;1.20;;;;;;;23.52;35.40;98728.66;4502764;31;20083;-84
2022/07/19 04:28:01;;;;;;;3.17;1.12;;;;;;;24.46;33.27;98728.34;4502741;31;20490;-84
2022/07/19 04:30:29;;;;;;;5.03;1.20;;;;;;;25.04;32.31;98723.09;4502583;31;20122;-84
2022/07/19 04:32:56;;;;;;;3.00;1.02;;;;;;;25.45;31.32;98722.91;4502872;31;20102;-84
2022/07/19 04:35:23;;;;;;;2.92;1.10;;;;;;;25.95;30.32;98728.75;4502705;31;20107;-84
2022/07/19 04:37:50;;;;;;;6.65;1.55;;;;;;;26.28;30.11;98737.06;4502460;31;20111;-84
2022/07/19 04:40:17;;;;;;;3.45;1.02;;;;;;;26.47;30.29;98731.66;4502760;31;20139;-84
2022/07/19 04:42:44;;;;;;;4.50;1.40;;;;;;;27.31;29.56;98733.91;4501567;31;20472;-84
2022/07/19 04:45:11;;;;;;;4.03;1.25;;;;;;;27.78;28.68;98742.38;4502212;31;20106;-84
2022/07/19 04:47:38;;;;;;;4.35;1.30;;;;;;;28.84;26.96;98739.25;4502467;31;20150;-84
2022/07/19 04:50:05;;;;;;;2.60;1.10;;;;;;;29.51;26.17;98738.13;4502595;31;20112;-84
2022/07/19 04:52:32;;;;;;;5.37;1.30;;;;;;;30.15;25.42;98738.09;4502216;31;20119;-84
2022/07/19 04:54:59;;;;;;;7.85;1.30;;;;;;;30.68;25.01;98736.50;4502339;31;20099;-84
2022/07/19 04:57:26;;;;;;;5.07;1.27;;;;;;;31.25;24.38;98736.91;4501299;31;20152;-82
2022/07/19 04:59:53;;;;;;;7.35;1.20;;;;;;;31.49;24.22;98740.38;4502192;31;20366;-82
2022/07/19 05:02:20;;;;;;;4.22;1.10;;;;;;;31.55;23.81;98735.13;4502479;31;20095;-82
2022/07/19 05:04:48;;;;;;;4.32;1.17;;;;;;;31.75;24.20;98746.13;4501957;31;20119;-82
2022/07/19 05:07:15;;;;;;;6.75;1.67;;;;;;;32.24;23.81;98741.03;4502213;31;20092;-81
2022/07/19 05:09:42;;;;;;;7.80;2.95;;;;;;;32.74;23.38;98746.50;4502395;31;20138;-81
2022/07/19 05:12:10;;;;;;;9.07;1.40;;;;;;;33.08;22.93;98744.00;4501883;31;20426;-80
2022/07/19 05:14:37;;;;;;;3.10;1.48;;;;;;;33.63;22.53;98738.91;4502091;31;20067;-81
2022/07/19 05:17:04;;;;;;;3.45;1.30;;;;;;;33.83;22.24;98745.19;4502133;31;20468;-81
2022/07/19 05:19:31;;;;;;;3.37;1.37;;;;;;;34.73;20.89;98746.00;4501804;31;20151;-81
2022/07/19 05:21:58;;;;;;;5.55;1.20;;;;;;;35.25;20.42;98747.91;4502192;31;20162;-81
2022/07/19 05:24:25;;;;;;;5.40;1.30;;;;;;;34.89;21.03;98742.16;4501777;31;20398;-81
2022/07/19 05:26:52;;;;;;;3.15;1.10;;;;;;;35.48;20.54;98738.66;4501493;31;20176;-81
2022/07/19 05:29:19;;;;;;;3.47;1.30;;;;;;;35.64;20.54;98743.59;4502118;31;20096;-82
2022/07/19 05:31:46;;;;;;;3.20;1.20;;;;;;;35.77;20.71;98738.19;4500857;31;20471;-82
2022/07/19 05:34:13;;;;;;;4.07;1.12;;;;;;;36.07;20.38;98730.47;4502294;31;20103;-82
2022/07/19 05:36:41;;;;;;;2.60;1.30;;;;;;;36.78;19.22;98740.25;4504137;31;20155;-82
2022/07/19 05:39:08;;;;;;;1.48;1.10;;;;;;;37.65;18.48;98733.16;4504249;31;20148;-82
2022/07/19 05:41:34;;;;;;;6.32;1.30;;;;;;;37.68;17.47;98732.72;4503834;31;20144;-82
2022/07/19 05:44:02;;;;;;;4.78;1.20;;;;;;;38.34;16.80;98741.94;4503985;31;20383;-82
2022/07/19 05:46:29;;;;;;;3.70;1.15;;;;;;;38.45;17.21;98741.16;4504143;31;20148;-82
2022/07/19 05:48:56;;;;;;;4.60;1.50;;;;;;;39.01;16.50;98742.63;4503618;31;20493;-81
2022/07/19 05:51:23;;;;;;;9.38;1.58;;;;;;;39.44;15.50;98745.03;4504146;31;20166;-81
2022/07/19 05:53:50;;;;;;;3.33;1.60;;;;;;;39.72;14.70;98738.13;4503671;31;20079;-81
2022/07/19 05:56:17;;;;;;;4.37;1.80;;;;;;;40.25;14.28;98747.91;4504093;31;20152;-81
2022/07/19 05:58:44;;;;;;;3.03;1.27;;;;;;;40.92;14.49;98748.94;4504073;31;20135;-80
2022/07/19 06:01:22;;;;;;;3.53;1.40;;;;;;;40.35;14.04;98748.09;4503679;31;20088;-81
2022/07/19 06:03:52;;;;;;;5.15;1.35;;;;;;;40.89;13.58;98743.19;4503950;31;20084;-81
2022/07/19 06:06:27;;;;;;;8.57;1.20;;;;;;;39.48;14.23;98748.09;4504061;31;20092;-80
2022/07/19 06:08:54;;;;;;;6.45;1.40;;;;;;;40.32;13.55;98745.91;4502286;31;20517;-82
2022/07/19 06:11:22;;;;;;;7.50;1.75;;;;;;;41.30;12.67;98742.81;4504028;31;20189;-82
2022/07/19 06:13:50;;;;;;;4.50;1.40;;;;;;;40.84;13.58;98752.03;4503814;31;20102;-82
2022/07/19 06:16:17;;;;;;;4.15;1.50;;;;;;;40.96;12.86;98743.87;4503547;31;20084;-81
2022/07/19 06:18:44;;;;;;;5.25;1.40;;;;;;;39.78;13.42;98732.62;4502791;31;20122;-80
2022/07/19 06:21:14;;;;;;;3.37;1.23;;;;;;;39.04;13.77;98740.31;4503919;31;20144;-78
2022/07/19 06:23:41;;;;;;;2.67;1.27;;;;;;;38.53;13.89;98735.44;4503204;31;20084;-78
2022/07/19 06:26:09;;;;;;;6.12;1.20;;;;;;;38.19;14.29;98735.03;4503783;31;20100;-79
2022/07/19 06:28:36;;;;;;;3.22;1.20;;;;;;;37.17;14.66;98736.47;4503574;31;20140;-79
2022/07/19 06:31:11;;;;;;;2.40;1.12;;;;;;;35.64;15.98;98730.16;4503330;31;20092;-78
2022/07/19 06:33:41;;;;;;;5.32;1.20;;;;;;;34.76;17.01;98735.69;4503791;31;20098;-80
2022/07/19 06:36:08;;;;;;;3.62;1.35;;;;;;;35.26;16.77;98736.16;4503337;31;20107;-80
2022/07/19 06:38:36;;;;;;;3.58;1.30;;;;;;;34.90;16.57;98733.88;4503655;31;20450;-83
2022/07/19 06:41:03;;;;;;;2.55;1.10;;;;;;;33.82;17.56;98732.00;4504266;31;20080;-82
2022/07/19 06:43:30;;;;;;;2.92;1.20;;;;;;;32.37;18.71;98726.19;4503483;31;20147;-81
2022/07/19 06:45:57;;;;;;;2.95;1.20;;;;;;;32.96;18.07;98725.97;4502644;31;20103;-82
2022/07/19 06:48:25;;;;;;;5.57;1.52;;;;;;;33.05;17.83;98736.34;4503323;31;20167;-83
2022/07/19 06:50:51;;;;;;;3.03;1.12;;;;;;;32.29;19.28;98737.81;4503124;31;20087;-82
2022/07/19 06:53:18;;;;;;;6.45;1.30;;;;;;;32.09;18.74;98726.84;4503332;31;20122;-82
2022/07/19 06:55:45;;;;;;;5.12;1.30;;;;;;;32.98;18.63;98734.66;4503498;31;20116;-81
2022/07/19 06:58:12;;;;;;;4.93;1.12;;;;;;;32.88;18.61;98728.81;4499815;31;20163;-82
2022/07/19 07:00:40;;;;;;;2.67;1.33;;;;;;;33.67;18.07;98740.97;4495635;31;20140;-81
2022/07/19 07:03:06;;;;;;;3.95;1.37;;;;;;;33.85;18.36;98729.75;4495532;31;20159;-82
2022/07/19 07:05:34;;;;;;;4.10;1.80;;;;;;;33.76;18.15;98730.13;4498148;31;20159;-80
2022/07/19 07:08:01;;;;;;;5.35;1.70;;;;;;;34.54;17.13;98738.72;4487264;31;20171;-80
2022/07/19 07:10:28;;;;;;;3.37;1.15;;;;;;;34.73;17.20;98736.09;4487310;31;20163;-80
2022/07/19 07:12:55;;;;;;;3.12;1.02;;;;;;;35.11;16.75;98730.19;4487071;32;20132;-80
2022/07/19 07:15:22;;;;;;;3.42;1.20;;;;;;;35.52;16.16;98729.97;4487304;31;20164;-80
2022/07/19 07:17:49;;;;;;;9.32;1.30;;;;;;;34.71;16.32;98726.59;4487526;31;20167;-80
2022/07/19 07:20:16;;;;;;;2.28;1.15;;;;;;;33.90;17.61;98719.28;4487219;31;20088;-80
2022/07/19 07:22:43;;;;;;;8.27;1.58;;;;;;;33.38;16.96;98717.09;4487299;31;20080;-80
2022/07/19 07:25:10;;;;;;;3.08;1.10;;;;;;;33.33;17.77;98706.13;4485840;32;20160;-80
2022/07/19 07:27:37;;;;;;;3.35;1.20;;;;;;;33.52;17.01;98710.00;4487526;31;20450;-81
2022/07/19 07:30:05;;;;;;;4.35;1.50;;;;;;;33.40;17.27;98711.59;4488562;31;20457;-80
2022/07/19 07:32:32;;;;;;;4.68;1.20;;;;;;;33.55;17.33;98713.09;4494836;31;20451;-80
2022/07/19 07:34:59;;;;;;;3.35;1.30;;;;;;;33.59;17.38;98719.72;4502898;31;20149;-80
2022/07/19 07:37:26;;;;;;;8.93;1.33;;;;;;;33.48;17.34;98722.94;4489718;31;20152;-80
2022/07/19 07:39:54;;;;;;;2.22;1.20;;;;;;;34.28;17.38;98720.69;4502603;31;20786;-80
2022/07/19 07:42:22;;;;;;;2.20;1.23;;;;;;;34.70;16.35;98723.09;4495724;31;20454;-80
2022/07/19 07:44:49;;;;;;;3.85;0.90;;;;;;;34.97;16.36;98720.47;4496983;31;20461;-81
2022/07/19 07:47:16;;;;;;;5.60;1.33;;;;;;;35.55;15.69;98718.81;4497719;31;20125;-80
2022/07/19 07:49:42;;;;;;;4.22;1.42;;;;;;;35.70;15.32;98718.56;4492643;31;20863;-80
2022/07/19 07:52:09;;;;;;;2.58;1.30;;;;;;;35.24;15.89;98716.78;4499577;31;20155;-79
2022/07/19 07:54:36;;;;;;;3.33;1.23;;;;;;;33.26;17.32;98721.31;4489262;31;20114;-78
2022/07/19 07:57:14;;;;;;;3.20;1.20;;;;;;;33.97;16.60;98724.69;4502497;31;20176;-79
2022/07/19 07:59:41;;;;;;;3.78;1.20;;;;;;;34.27;16.36;98722.56;4503122;31;20162;-79
2022/07/19 08:02:08;;;;;;;3.15;1.25;;;;;;;34.79;16.37;98721.06;4495802;31;20146;-78
2022/07/19 08:04:35;;;;;;;4.87;1.30;;;;;;;34.56;16.44;98721.44;4500785;31;20160;-79
2022/07/19 08:07:25;;;;;;;3.20;1.30;;;;;;;33.50;18.19;98723.59;4498369;31;20171;-80
2022/07/19 08:10:26;;;;;;;2.62;1.33;;;;;;;34.19;17.57;98722.72;4494483;31;20115;-79
2022/07/19 08:13:31;;;;;;;3.50;1.30;;;;;;;33.25;18.11;98709.78;4489671;31;20158;-81
2022/07/19 08:16:12;;;;;;;2.20;1.20;;;;;;;32.73;19.17;98712.78;4492317;31;20108;-80
2022/07/19 08:18:39;;;;;;;2.12;1.20;;;;;;;33.76;18.30;98706.03;4487059;31;20118;-80
2022/07/19 08:21:07;;;;;;;6.60;1.30;;;;;;;34.18;17.36;98721.91;4487042;31;20088;-80
2022/07/19 08:23:34;;;;;;;7.30;1.40;;;;;;;34.57;17.06;98712.37;4486453;31;20243;-80
2022/07/19 08:26:01;;;;;;;4.00;1.37;;;;;;;34.42;17.70;98714.38;4495111;31;20103;-80
2022/07/19 08:28:28;;;;;;;3.92;1.30;;;;;;;35.16;16.41;98706.25;4499483;31;20120;-81
2022/07/19 08:30:55;;;;;;;4.28;1.30;;;;;;;35.54;16.87;98703.75;4502706;31;20155;-82
2022/07/19 08:33:39;;;;;;;6.82;1.75;;;;;;;34.87;16.76;98709.28;4503188;31;20106;-82
2022/07/19 08:36:07;;;;;;;4.35;1.42;;;;;;;35.01;17.31;98705.63;4501238;31;20163;-81
2022/07/19 08:38:42;;;;;;;4.85;2.30;;;;;;;34.76;17.58;98706.19;4498229;31;20168;-81
2022/07/19 08:41:10;;;;;;;13.07;1.75;;;;;;;33.61;18.32;98696.28;4491558;31;20141;-82
2022/07/19 08:43:37;;;;;;;5.82;1.30;;;;;;;35.03;17.23;98707.06;4494019;31;20092;-82
2022/07/19 08:46:04;;;;;;;24.73;2.45;;;;;;;35.07;17.19;98713.66;4497151;31;20143;-83
2022/07/19 08:48:34;;;;;;;3.42;1.50;;;;;;;35.95;16.21;98712.56;4502415;31;20554;-82
2022/07/19 08:51:12;;;;;;;7.75;1.58;;;;;;;36.33;16.20;98715.25;4502128;31;20083;-82
2022/07/19 08:53:40;;;;;;;4.32;1.45;;;;;;;36.36;15.92;98713.00;4502502;31;20171;-82
2022/07/19 08:58:54;;;;;;;4.28;1.60;;;;;;;36.56;16.44;98704.81;4498439;31;20119;-81
2022/07/19 09:01:21;;;;;;;6.43;1.50;;;;;;;37.06;15.99;98715.66;4502316;31;20088;-81
2022/07/19 09:04:05;;;;;;;3.08;1.48;;;;;;;36.80;15.69;98713.97;4486584;31;20100;-81
2022/07/19 09:06:52;;;;;;;4.97;1.40;;;;;;;37.49;15.02;98710.31;4486520;31;20089;-81
2022/07/19 09:09:22;;;;;;;6.43;1.40;;;;;;;37.22;16.01;98701.66;4486078;32;20159;-80
2022/07/19 09:11:50;;;;;;;4.90;1.58;;;;;;;35.60;16.83;98705.59;4488164;31;20076;-80
2022/07/19 09:14:25;;;;;;;5.15;1.40;;;;;;;35.79;17.05;98701.19;4488303;31;20114;-80
2022/07/19 09:17:02;;;;;;;7.15;1.60;;;;;;;35.52;16.93;98705.84;4488458;31;20153;-81
2022/07/19 09:19:33;;;;;;;4.80;1.30;;;;;;;35.39;18.30;98700.47;4488079;31;20115;-80
2022/07/19 09:22:02;;;;;;;4.62;1.40;;;;;;;35.18;18.35;98700.66;4488358;31;20135;-82
2022/07/19 09:24:31;;;;;;;9.65;1.90;;;;;;;35.67;18.03;98700.22;4487895;31;20167;-83
2022/07/19 09:27:07;;;;;;;4.87;1.20;;;;;;;34.98;17.46;98704.16;4488606;31;20145;-83
2022/07/19 09:29:40;;;;;;;3.58;1.42;;;;;;;34.77;17.37;98698.97;4488238;31;20140;-81
2022/07/19 09:32:11;;;;;;;2.15;1.20;;;;;;;34.89;17.51;98700.06;4488535;32;20456;-81
2022/07/19 09:34:48;;;;;;;13.65;1.73;;;;;;;34.02;18.05;98695.47;4488162;31;20097;-82
2022/07/19 09:37:27;;;;;;;3.67;1.42;;;;;;;34.54;18.75;98704.72;4488708;31;20168;-81
2022/07/19 09:39:57;;;;;;;3.60;1.80;;;;;;;33.65;18.17;98686.81;4488147;31;20103;-82
2022/07/19 09:42:35;;;;;;;4.60;1.40;;;;;;;33.48;19.05;98684.66;4487015;32;20110;-80
2022/07/19 09:45:06;;;;;;;4.35;1.42;;;;;;;33.71;18.23;98689.72;4488009;31;20143;-79
2022/07/19 09:47:41;;;;;;;10.30;1.70;;;;;;;33.04;18.97;98686.59;4487820;31;20096;-80
2022/07/19 09:50:14;;;;;;;4.80;1.40;;;;;;;33.95;18.26;98697.31;4488313;31;20100;-81
2022/07/19 09:52:42;;;;;;;5.80;1.60;;;;;;;34.60;18.14;98698.56;4487731;31;20084;-81
2022/07/19 09:55:14;;;;;;;5.18;1.48;;;;;;;35.35;17.05;98697.34;4487960;31;20088;-81
2022/07/19 09:57:44;;;;;;;3.60;1.35;;;;;;;34.73;17.32;98697.75;4489955;31;20160;-81
2022/07/19 10:00:13;;;;;;;8.30;1.58;;;;;;;33.67;18.13;98684.78;4487793;31;20426;-81
2022/07/19 10:02:42;;;;;;;8.20;1.60;;;;;;;34.51;17.99;98694.41;4488139;31;20084;-82
2022/07/19 10:05:10;;;;;;;5.90;1.40;;;;;;;34.62;17.44;98687.63;4498575;31;20102;-80
2022/07/19 10:07:38;;;;;;;3.95;1.48;;;;;;;34.46;18.43;98684.31;4504128;31;20112;-81
2022/07/19 10:10:07;;;;;;;5.78;1.37;;;;;;;34.48;17.73;98681.44;4504370;31;20147;-81
2022/07/19 10:12:37;;;;;;;5.78;1.50;;;;;;;34.48;17.79;98676.91;4496533;31;20087;-81
2022/07/19 10:15:09;;;;;;;5.68;1.27;;;;;;;34.35;18.50;98682.19;4487679;31;20115;-81
2022/07/19 10:17:39;;;;;;;3.08;1.30;;;;;;;33.71;18.55;98676.34;4498564;31;20108;-81
2022/07/19 10:20:07;;;;;;;5.57;1.30;;;;;;;34.27;18.50;98676.19;4502007;31;20104;-81
2022/07/19 10:22:34;;;;;;;2.92;1.37;;;;;;;34.11;18.63;98683.56;4503162;31;20102;-81
2022/07/19 10:25:04;;;;;;;3.70;1.20;;;;;;;34.21;18.00;98680.50;4503646;31;20593;-81
2022/07/19 10:27:33;;;;;;;4.53;1.20;;;;;;;33.89;17.89;98679.34;4493610;31;20120;-82
2022/07/19 10:30:12;;;;;;;3.30;1.30;;;;;;;34.55;17.58;98676.06;4496429;31;20448;-82
2022/07/19 10:32:42;;;;;;;16.00;2.45;;;;;;;35.18;17.17;98671.16;4503718;31;20080;-82
2022/07/19 10:35:28;;;;;;;4.32;1.30;;;;;;;35.53;17.61;98664.53;4503181;31;20155;-81
2022/07/19 10:38:01;;;;;;;2.58;1.23;;;;;;;35.00;17.37;98666.47;4503554;31;20117;-81
2022/07/19 10:40:58;;;;;;;3.97;1.20;;;;;;;34.93;16.89;98660.25;4503608;31;20209;-81
2022/07/19 10:43:27;;;;;;;;;;;;;;;34.64;17.59;98667.63;4486605;31;20472;-80
2022/07/19 10:45:58;;;;;;;3.20;1.25;;;;;;;34.67;17.49;98667.25;4500762;31;19976;-80
2022/07/19 10:48:34;;;;;;;3.95;1.80;;;;;;;34.64;17.59;98669.50;4487623;31;20148;-80
2022/07/19 10:51:01;;;;;;;3.40;1.20;;;;;;;34.40;17.97;98666.38;4487728;31;20148;-79
2022/07/19 10:53:41;;;;;;;7.18;1.52;;;;;;;34.43;17.07;98659.75;4487925;31;20145;-79
2022/07/19 10:56:16;;;;;;;3.85;1.30;;;;;;;34.43;17.50;98665.13;4498524;31;20076;-80
2022/07/19 10:58:51;;;;;;;2.53;1.20;;;;;;;34.42;17.50;98666.16;4496555;31;20163;-80
2022/07/19 11:01:19;;;;;;;2.25;1.17;;;;;;;34.62;17.26;98668.88;4487745;31;20457;-79
2022/07/19 11:03:47;;;;;;;7.00;1.37;;;;;;;33.84;18.77;98668.41;4487234;31;20088;-80
2022/07/19 11:06:23;;;;;;;4.95;1.40;;;;;;;34.05;18.65;98665.63;4487614;32;20153;-80
2022/07/19 11:08:56;;;;;;;3.37;1.45;;;;;;;34.53;17.34;98665.56;4488641;31;20088;-79
2022/07/19 11:11:26;;;;;;;3.37;1.40;;;;;;;33.97;17.65;98655.09;4501889;31;20144;-79
2022/07/19 11:13:55;;;;;;;3.75;1.40;;;;;;;33.60;18.67;98653.66;4503341;31;20125;-78
2022/07/19 11:16:25;;;;;;;3.42;1.20;;;;;;;34.36;17.72;98646.34;4503276;31;20421;-78
2022/07/19 11:19:02;;;;;;;3.45;1.25;;;;;;;34.40;17.58;98652.97;4503087;31;20115;-78
2022/07/19 11:21:32;;;;;;;2.75;1.30;;;;;;;34.71;17.62;98633.62;4503519;31;20134;-78
2022/07/19 11:24:06;;;;;;;3.60;1.70;;;;;;;34.76;17.09;98635.69;4502941;31;20106;-78
2022/07/19 11:26:38;;;;;;;6.03;2.80;;;;;;;34.23;17.26;98647.13;4503313;31;20088;-77
2022/07/19 11:29:12;;;;;;;4.70;1.12;;;;;;;34.62;17.06;98648.25;4503108;31;20092;-78
2022/07/19 11:31:46;;;;;;;5.30;1.30;;;;;;;35.00;17.97;98645.00;4502445;31;20096;-78
2022/07/19 11:34:13;;;;;;;4.18;1.33;;;;;;;35.36;16.42;98634.63;4503184;31;20107;-78
2022/07/19 11:36:40;;;;;;;2.87;1.17;;;;;;;34.61;17.54;98643.94;4503136;31;20100;-78
2022/07/19 11:39:07;;;;;;;4.60;1.30;;;;;;;34.63;17.14;98643.72;4501476;31;20135;-78
2022/07/19 11:41:34;;;;;;;4.95;1.50;;;;;;;34.87;17.27;98629.69;4503339;31;20192;-78
2022/07/19 11:44:04;;;;;;;5.20;1.25;;;;;;;34.50;17.34;98642.69;4503164;31;20138;-78